createdAt,value
2018-05-25T00:01:25.066Z,5.60
2018-05-25T00:03:53.166Z,5.80
2018-05-25T00:06:22.098Z,6.10
2018-05-25T00:08:50.814Z,5.80
2018-05-25T00:11:18.910Z,6.60
2018-05-25T00:13:47.408Z,6.87
2018-05-25T00:16:15.960Z,7.27
2018-05-25T00:18:44.041Z,6.90
2018-05-25T00:21:12.326Z,7.10
2018-05-25T00:23:40.784Z,6.60
2018-05-25T00:26:08.853Z,7.13
2018-05-25T00:28:37.388Z,6.57
2018-05-25T00:31:06.531Z,6.50
2018-05-25T00:33:34.614Z,7.10
2018-05-25T00:36:02.921Z,6.10
2018-05-25T00:38:31.104Z,6.50
2018-05-25T00:40:59.169Z,7.77
2018-05-25T00:43:27.627Z,6.40
2018-05-25T00:45:56.181Z,6.97
2018-05-25T00:48:24.250Z,6.80
2018-05-25T00:50:52.381Z,6.10
2018-05-25T00:53:21.009Z,7.30
2018-05-25T00:55:49.143Z,7.43
2018-05-25T00:58:18.205Z,6.40
2018-05-25T01:00:46.943Z,6.50
2018-05-25T01:03:15.790Z,6.87
2018-05-25T01:05:44.099Z,7.07
2018-05-25T01:08:12.832Z,6.90
2018-05-25T01:10:40.893Z,6.60
2018-05-25T01:13:09.399Z,6.50
2018-05-25T01:15:37.955Z,6.60
2018-05-25T01:18:06.017Z,6.30
2018-05-25T01:20:34.275Z,6.20
2018-05-25T01:23:03.701Z,7.17
2018-05-25T01:25:31.767Z,6.67
2018-05-25T01:28:00.305Z,7.43
2018-05-25T01:30:29.745Z,6.60
2018-05-25T01:32:57.824Z,7.00
2018-05-25T01:35:26.341Z,6.47
2018-05-25T01:37:54.889Z,7.53
2018-05-25T01:40:22.995Z,6.83
2018-05-25T01:42:51.468Z,7.50
2018-05-25T01:45:20.016Z,7.00
2018-05-25T01:47:48.267Z,7.27
2018-05-25T01:50:17.531Z,8.00
2018-05-25T01:52:46.573Z,7.13
2018-05-25T01:55:15.462Z,6.30
2018-05-25T01:57:43.978Z,6.50
2018-05-25T02:00:12.462Z,6.70
2018-05-25T02:02:40.535Z,6.83
2018-05-25T02:05:09.040Z,6.90
2018-05-25T02:07:37.584Z,6.93
2018-05-25T02:10:05.657Z,7.60
2018-05-25T02:12:34.194Z,6.50
2018-05-25T02:15:03.341Z,6.80
2018-05-25T02:17:31.406Z,5.90
2018-05-25T02:19:59.938Z,6.90
2018-05-25T02:22:29.264Z,7.27
2018-05-25T02:24:58.072Z,5.97
2018-05-25T02:27:26.628Z,6.70
2018-05-25T02:29:55.138Z,6.13
2018-05-25T02:32:23.206Z,6.90
2018-05-25T02:34:51.436Z,6.87
2018-05-25T02:37:19.958Z,6.60
2018-05-25T02:39:48.067Z,6.97
2018-05-25T02:42:16.575Z,7.10
2018-05-25T02:44:45.717Z,6.60
2018-05-25T02:47:13.848Z,7.10
2018-05-25T02:49:42.088Z,6.10
2018-05-25T02:52:10.866Z,6.80
2018-05-25T02:54:38.916Z,6.53
2018-05-25T02:57:07.170Z,7.77
2018-05-25T02:59:35.682Z,7.10
2018-05-25T03:02:03.770Z,7.30
2018-05-25T03:04:32.029Z,7.27
2018-05-25T03:07:00.518Z,7.20
2018-05-25T03:09:28.575Z,7.10
2018-05-25T03:11:56.703Z,8.10
2018-05-25T03:14:25.335Z,7.90
2018-05-25T03:16:53.439Z,7.47
2018-05-25T03:19:21.665Z,7.20
2018-05-25T03:21:49.989Z,7.70
2018-05-25T03:24:18.059Z,8.30
2018-05-25T03:26:46.452Z,7.70
2018-05-25T03:29:15.909Z,7.87
2018-05-25T03:31:44.032Z,7.60
2018-05-25T03:34:12.489Z,7.83
2018-05-25T03:36:41.349Z,7.10
2018-05-25T03:39:09.434Z,6.63
2018-05-25T03:41:37.937Z,6.87
2018-05-25T03:44:06.485Z,7.67
2018-05-25T03:46:34.590Z,7.03
2018-05-25T03:49:03.074Z,7.13
2018-05-25T03:51:31.808Z,6.83
2018-05-25T03:54:00.639Z,7.07
2018-05-25T03:56:29.132Z,6.90
2018-05-25T03:59:09.369Z,6.73
2018-05-25T04:01:58.200Z,7.30
2018-05-25T04:04:26.875Z,7.73
2018-05-25T04:06:55.765Z,7.80
2018-05-25T04:09:23.846Z,8.03
2018-05-25T04:11:52.142Z,6.77
2018-05-25T04:14:20.678Z,7.67
2018-05-25T04:16:48.720Z,6.93
2018-05-25T04:19:17.272Z,7.10
2018-05-25T04:21:45.790Z,7.40
2018-05-25T04:24:13.861Z,6.90
2018-05-25T04:26:42.032Z,7.43
2018-05-25T04:29:10.323Z,6.90
2018-05-25T04:31:39.172Z,6.90
2018-05-25T04:34:07.855Z,7.77
2018-05-25T04:36:36.388Z,6.93
2018-05-25T04:39:06.053Z,7.03
2018-05-25T04:41:34.516Z,7.10
2018-05-25T04:44:03.085Z,7.53
2018-05-25T04:46:31.161Z,7.30
2018-05-25T04:48:59.655Z,6.97
2018-05-25T04:51:27.806Z,7.90
2018-05-25T04:53:55.894Z,8.10
2018-05-25T04:56:24.489Z,7.10
2018-05-25T04:58:53.056Z,8.27
2018-05-25T05:01:22.906Z,7.70
2018-05-25T05:03:51.479Z,7.90
2018-05-25T05:06:19.991Z,7.90
2018-05-25T05:08:48.078Z,7.43
2018-05-25T05:11:17.201Z,7.77
2018-05-25T05:13:45.348Z,7.40
2018-05-25T05:16:13.451Z,7.93
2018-05-25T05:18:42.670Z,8.23
2018-05-25T05:21:11.411Z,7.40
2018-05-25T05:23:39.498Z,7.90
2018-05-25T05:26:07.791Z,8.17
2018-05-25T05:28:36.324Z,7.97
2018-05-25T05:31:05.166Z,7.67
2018-05-25T05:33:34.797Z,8.20
2018-05-25T05:36:03.137Z,8.23
2018-05-25T05:38:31.211Z,7.60
2018-05-25T05:40:59.594Z,8.17
2018-05-25T05:43:28.162Z,7.90
2018-05-25T05:45:56.243Z,8.50
2018-05-25T05:48:24.725Z,8.93
2018-05-25T05:50:53.139Z,8.70
2018-05-25T05:53:21.223Z,10.50
2018-05-25T05:55:49.586Z,8.80
2018-05-25T05:58:18.121Z,10.30
2018-05-25T06:00:46.949Z,9.70
2018-05-25T06:03:15.615Z,10.17
2018-05-25T06:05:44.132Z,9.60
2018-05-25T06:08:12.345Z,10.73
2018-05-25T06:10:41.061Z,10.33
2018-05-25T06:13:09.273Z,11.23
2018-05-25T06:15:37.361Z,11.60
2018-05-25T06:18:06.499Z,9.30
2018-05-25T06:20:34.615Z,10.40
2018-05-25T06:23:03.593Z,9.60
2018-05-25T06:25:32.038Z,9.23
2018-05-25T06:28:00.781Z,10.13
2018-05-25T06:30:29.619Z,9.63
2018-05-25T06:32:57.853Z,9.83
2018-05-25T06:35:27.141Z,10.10
2018-05-25T06:37:56.021Z,9.80
2018-05-25T06:40:24.285Z,9.37
2018-05-25T06:42:52.754Z,9.70
2018-05-25T06:45:20.884Z,10.63
2018-05-25T06:47:49.502Z,8.77
2018-05-25T06:50:17.765Z,9.60
2018-05-25T06:52:45.894Z,9.60
2018-05-25T06:55:14.136Z,8.90
2018-05-25T06:57:42.368Z,9.50
2018-05-25T07:00:10.562Z,9.13
2018-05-25T07:02:38.856Z,9.00
2018-05-25T07:05:07.383Z,8.63
2018-05-25T07:07:35.478Z,8.90
2018-05-25T07:10:03.732Z,8.77
2018-05-25T07:12:31.945Z,8.03
2018-05-25T07:15:00.074Z,7.90
2018-05-25T07:17:28.386Z,7.27
2018-05-25T07:19:56.610Z,8.53
2018-05-25T07:22:24.734Z,8.67
2018-05-25T07:24:53.331Z,6.50
2018-05-25T07:27:21.560Z,8.10
2018-05-25T07:29:49.650Z,7.87
2018-05-25T07:32:18.154Z,6.67
2018-05-25T07:34:46.754Z,6.07
2018-05-25T07:37:14.843Z,6.00
2018-05-25T07:39:43.623Z,6.67
2018-05-25T07:42:11.831Z,6.03
2018-05-25T07:44:40.678Z,6.73
2018-05-25T07:47:08.870Z,6.23
2018-05-25T07:49:37.146Z,5.53
2018-05-25T07:52:05.242Z,6.40
2018-05-25T07:54:33.652Z,5.73
2018-05-25T07:57:02.410Z,6.00
2018-05-25T07:59:31.275Z,5.60
2018-05-25T08:02:00.118Z,5.90
2018-05-25T08:04:28.347Z,5.80
2018-05-25T08:06:56.453Z,5.80
2018-05-25T08:09:24.732Z,5.53
2018-05-25T08:11:53.469Z,6.37
2018-05-25T08:14:21.593Z,5.80
2018-05-25T08:16:49.902Z,5.87
2018-05-25T08:19:18.096Z,5.83
2018-05-25T08:21:46.198Z,6.23
2018-05-25T08:24:15.818Z,6.13
2018-05-25T08:26:44.809Z,6.00
2018-05-25T08:29:12.965Z,6.30
2018-05-25T08:31:41.723Z,6.40
2018-05-25T08:34:10.251Z,5.70
2018-05-25T08:36:38.356Z,6.20
2018-05-25T08:39:06.829Z,6.00
2018-05-25T08:41:35.035Z,6.40
2018-05-25T08:44:03.143Z,6.23
2018-05-25T08:46:31.671Z,5.63
2018-05-25T08:49:00.183Z,5.97
2018-05-25T08:51:29.041Z,6.17
2018-05-25T08:53:57.409Z,6.60
2018-05-25T08:56:25.961Z,5.90
2018-05-25T08:58:54.053Z,5.20
2018-05-25T09:01:23.165Z,5.80
2018-05-25T09:03:51.376Z,5.10
2018-05-25T09:06:20.216Z,6.00
2018-05-25T09:08:48.783Z,6.13
2018-05-25T09:11:18.484Z,5.20
2018-05-25T09:13:46.570Z,5.70
2018-05-25T09:16:14.976Z,5.37
2018-05-25T09:18:43.170Z,6.30
2018-05-25T09:21:11.260Z,5.93
2018-05-25T09:23:40.701Z,5.00
2018-05-25T09:26:09.232Z,5.30
2018-05-25T09:28:37.302Z,4.73
2018-05-25T09:31:06.029Z,3.80
2018-05-25T09:33:35.055Z,4.13
2018-05-25T09:36:03.144Z,3.93
2018-05-25T09:38:31.596Z,3.90
2018-05-25T09:41:00.119Z,4.17
2018-05-25T09:43:28.231Z,3.83
2018-05-25T09:45:57.647Z,4.40
2018-05-25T09:48:25.770Z,4.30
2018-05-25T09:50:53.882Z,4.20
2018-05-25T09:53:22.482Z,4.07
2018-05-25T09:55:50.997Z,4.80
2018-05-25T09:58:19.073Z,3.93
2018-05-25T10:00:47.615Z,4.40
2018-05-25T10:03:16.180Z,4.90
2018-05-25T10:05:44.223Z,3.80
2018-05-25T10:08:13.547Z,3.80
2018-05-25T10:10:42.801Z,3.50
2018-05-25T10:13:10.955Z,3.00
2018-05-25T10:15:39.421Z,3.50
2018-05-25T10:18:07.693Z,3.60
2018-05-25T10:20:35.751Z,4.23
2018-05-25T10:23:03.937Z,3.33
2018-05-25T10:25:32.053Z,3.40
2018-05-25T10:28:00.152Z,3.40
2018-05-25T10:30:28.461Z,3.97
2018-05-25T10:32:57.030Z,3.67
2018-05-25T10:35:25.171Z,4.00
2018-05-25T10:37:53.335Z,4.03
2018-05-25T10:40:21.563Z,3.80
2018-05-25T10:42:49.654Z,3.73
2018-05-25T10:45:18.118Z,3.77
2018-05-25T10:47:46.464Z,3.57
2018-05-25T10:50:14.669Z,3.40
2018-05-25T10:52:43.251Z,3.93
2018-05-25T10:55:11.378Z,3.43
2018-05-25T10:57:39.507Z,3.43
2018-05-25T11:00:07.710Z,3.43
2018-05-25T11:02:36.002Z,3.87
2018-05-25T11:05:04.859Z,3.87
2018-05-25T11:07:33.051Z,3.30
2018-05-25T11:10:01.305Z,4.00
2018-05-25T11:12:29.392Z,3.90
2018-05-25T11:14:57.917Z,3.13
2018-05-25T11:17:27.206Z,3.67
2018-05-25T11:19:55.302Z,3.97
2018-05-25T11:22:23.800Z,3.60
2018-05-25T11:24:51.924Z,3.17
2018-05-25T11:27:20.024Z,3.47
2018-05-25T11:29:48.620Z,3.50
2018-05-25T11:32:16.924Z,3.30
2018-05-25T11:34:45.022Z,3.83
2018-05-25T11:37:14.068Z,3.50
2018-05-25T11:39:43.341Z,3.40
2018-05-25T11:42:11.422Z,3.17
2018-05-25T11:44:39.830Z,3.50
2018-05-25T11:47:08.098Z,3.30
2018-05-25T11:49:36.181Z,3.30
2018-05-25T11:52:04.509Z,3.37
2018-05-25T11:54:33.800Z,3.33
2018-05-25T11:57:01.966Z,4.00
2018-05-25T11:59:30.246Z,3.47
2018-05-25T12:01:59.298Z,3.03
2018-05-25T12:04:27.400Z,3.30
2018-05-25T12:06:56.138Z,3.03
2018-05-25T12:09:24.681Z,3.33
2018-05-25T12:11:52.763Z,3.37
2018-05-25T12:14:21.280Z,3.47
2018-05-25T12:16:49.530Z,3.20
2018-05-25T12:19:17.628Z,3.10
2018-05-25T12:21:45.770Z,3.33
2018-05-25T12:24:14.700Z,3.20
2018-05-25T12:26:42.770Z,3.57
2018-05-25T12:29:10.933Z,3.63
2018-05-25T12:31:39.606Z,3.40
2018-05-25T12:34:07.721Z,3.80
2018-05-25T12:36:35.790Z,3.80
2018-05-25T12:39:04.209Z,3.70
2018-05-25T12:41:32.277Z,3.90
2018-05-25T12:44:00.405Z,3.47
2018-05-25T12:46:28.968Z,3.53
2018-05-25T12:48:57.040Z,4.20
2018-05-25T12:51:25.157Z,3.97
2018-05-25T12:53:54.108Z,3.60
2018-05-25T12:56:24.491Z,3.43
2018-05-25T12:58:52.577Z,4.00
2018-05-25T13:01:21.871Z,3.77
2018-05-25T13:03:49.943Z,3.80
2018-05-25T13:06:18.066Z,3.67
2018-05-25T13:08:46.504Z,3.77
2018-05-25T13:11:14.632Z,4.13
2018-05-25T13:13:42.756Z,3.77
2018-05-25T13:16:11.662Z,3.60
2018-05-25T13:18:39.734Z,3.50
2018-05-25T13:21:07.832Z,3.67
2018-05-25T13:23:36.786Z,3.73
2018-05-25T13:26:04.878Z,3.63
2018-05-25T13:28:33.034Z,3.70
2018-05-25T13:31:01.685Z,3.07
2018-05-25T13:33:30.548Z,3.23
2018-05-25T13:35:58.750Z,3.17
2018-05-25T13:38:27.367Z,2.90
2018-05-25T13:40:56.004Z,3.40
2018-05-25T13:43:24.108Z,3.60
2018-05-25T13:45:53.135Z,3.33
2018-05-25T13:48:21.238Z,3.30
2018-05-25T13:50:49.342Z,3.27
2018-05-25T13:53:17.758Z,3.17
2018-05-25T13:55:45.839Z,3.30
2018-05-25T13:58:13.926Z,3.20
2018-05-25T14:00:43.382Z,3.03
2018-05-25T14:03:11.469Z,2.83
2018-05-25T14:05:39.626Z,3.53
2018-05-25T14:08:08.552Z,3.00
2018-05-25T14:10:36.641Z,3.00
2018-05-25T14:13:05.481Z,3.47
2018-05-25T14:15:34.300Z,3.20
2018-05-25T14:18:02.374Z,3.47
2018-05-25T14:20:30.452Z,2.83
2018-05-25T14:22:58.776Z,3.10
2018-05-25T14:25:26.868Z,3.03
2018-05-25T14:27:54.961Z,2.80
2018-05-25T14:30:23.222Z,2.90
2018-05-25T14:32:51.550Z,2.90
2018-05-25T14:35:20.420Z,3.40
2018-05-25T14:37:50.289Z,3.00
2018-05-25T14:40:20.074Z,2.90
2018-05-25T14:42:48.163Z,2.90
2018-05-25T14:45:16.803Z,3.23
2018-05-25T14:47:44.882Z,3.60
2018-05-25T14:50:13.748Z,3.13
2018-05-25T14:52:42.434Z,3.60
2018-05-25T14:55:10.534Z,2.90
2018-05-25T14:57:39.389Z,3.10
2018-05-25T15:00:08.051Z,3.03
2018-05-25T15:02:36.299Z,2.70
2018-05-25T15:05:04.396Z,3.13
2018-05-25T15:07:33.085Z,2.83
2018-05-25T15:10:01.201Z,3.03
2018-05-25T15:12:29.269Z,2.90
2018-05-25T15:14:58.255Z,2.80
2018-05-25T15:17:26.373Z,3.10
2018-05-25T15:19:54.468Z,3.30
2018-05-25T15:22:22.793Z,3.00
2018-05-25T15:24:51.864Z,2.87
2018-05-25T15:27:19.923Z,3.13
2018-05-25T15:29:48.435Z,3.67
2018-05-25T15:32:16.504Z,2.80
2018-05-25T15:34:44.590Z,3.10
2018-05-25T15:37:12.928Z,2.80
2018-05-25T15:39:40.994Z,3.00
2018-05-25T15:42:09.104Z,3.17
2018-05-25T15:44:38.538Z,2.90
2018-05-25T15:47:06.650Z,2.80
2018-05-25T15:49:34.756Z,3.10
2018-05-25T15:52:03.798Z,3.00
2018-05-25T15:54:31.890Z,3.13
2018-05-25T15:56:59.984Z,3.23
2018-05-25T15:59:28.960Z,2.97
2018-05-25T16:01:57.046Z,3.33
2018-05-25T16:04:25.125Z,3.47
2018-05-25T16:06:53.772Z,3.23
2018-05-25T16:09:21.868Z,3.10
2018-05-25T16:11:50.732Z,3.10
2018-05-25T16:14:19.172Z,3.23
2018-05-25T16:16:47.418Z,3.60
2018-05-25T16:19:16.271Z,3.30
2018-05-25T16:21:44.814Z,3.57
2018-05-25T16:24:13.684Z,3.60
2018-05-25T16:26:42.564Z,3.30
2018-05-25T16:29:11.332Z,3.30
2018-05-25T16:31:39.969Z,3.40
2018-05-25T16:34:08.069Z,2.90
2018-05-25T16:36:36.375Z,3.17
2018-05-25T16:39:04.524Z,2.87
2018-05-25T16:41:32.706Z,3.20
2018-05-25T16:44:01.163Z,3.10
2018-05-25T16:46:29.288Z,2.90
2018-05-25T16:48:57.413Z,3.70
2018-05-25T16:51:26.393Z,3.10
2018-05-25T16:53:54.491Z,3.10
2018-05-25T16:56:22.606Z,3.30
2018-05-25T16:58:50.932Z,3.00
2018-05-25T17:01:18.993Z,3.10
2018-05-25T17:03:47.101Z,2.80
2018-05-25T17:06:15.695Z,3.87
2018-05-25T17:08:43.767Z,3.10
2018-05-25T17:11:12.638Z,3.20
2018-05-25T17:13:41.501Z,3.10
2018-05-25T17:16:09.583Z,3.10
2018-05-25T17:18:38.420Z,2.90
2018-05-25T17:21:07.484Z,3.13
2018-05-25T17:23:36.275Z,3.03
2018-05-25T17:26:04.365Z,2.80
2018-05-25T17:28:33.486Z,2.73
2018-05-25T17:31:02.308Z,3.03
2018-05-25T17:33:30.372Z,3.47
2018-05-25T17:35:59.544Z,3.30
2018-05-25T17:38:28.411Z,3.10
2018-05-25T17:40:56.474Z,3.00
2018-05-25T17:43:25.421Z,3.80
2018-05-25T17:45:53.558Z,5.50
2018-05-25T17:48:21.637Z,4.47
2018-05-25T17:50:50.237Z,8.53
2018-05-25T17:53:19.235Z,26.70
2018-05-25T17:55:47.322Z,19.97
2018-05-25T17:58:15.926Z,7.73
2018-05-25T18:00:44.012Z,5.73
2018-05-25T18:03:12.930Z,11.07
2018-05-25T18:05:42.084Z,7.93
2018-05-25T18:08:10.134Z,3.90
2018-05-25T18:10:38.198Z,3.13
2018-05-25T18:13:07.188Z,3.00
2018-05-25T18:15:35.289Z,3.00
2018-05-25T18:18:03.755Z,2.90
2018-05-25T18:20:32.382Z,3.10
2018-05-25T18:23:00.521Z,3.20
2018-05-25T18:25:28.601Z,3.47
2018-05-25T18:27:57.456Z,2.93
2018-05-25T18:30:25.532Z,3.40
2018-05-25T18:32:53.605Z,3.33
2018-05-25T18:35:22.591Z,3.30
2018-05-25T18:37:50.651Z,3.50
2018-05-25T18:40:18.723Z,2.97
2018-05-25T18:42:47.116Z,3.17
2018-05-25T18:45:15.205Z,3.20
2018-05-25T18:47:43.267Z,3.47
2018-05-25T18:50:11.943Z,3.40
2018-05-25T18:52:40.002Z,3.87
2018-05-25T18:55:08.077Z,3.10
2018-05-25T18:57:36.922Z,3.73
2018-05-25T19:00:05.085Z,3.10
2018-05-25T19:02:33.161Z,3.30
2018-05-25T19:05:01.718Z,3.30
2018-05-25T19:07:29.805Z,3.90
2018-05-25T19:09:57.882Z,5.73
2018-05-25T19:12:26.192Z,5.17
2018-05-25T19:14:54.236Z,7.80
2018-05-25T19:17:22.327Z,4.00
2018-05-25T19:19:51.253Z,6.07
2018-05-25T19:22:19.357Z,3.50
2018-05-25T19:24:47.537Z,3.60
2018-05-25T19:27:16.072Z,4.40
2018-05-25T19:29:44.737Z,3.97
2018-05-25T19:32:12.816Z,4.70
2018-05-25T19:34:41.455Z,4.90
2018-05-25T19:37:09.549Z,4.80
2018-05-25T19:39:37.694Z,4.47
2018-05-25T19:42:06.353Z,4.70
2018-05-25T19:44:34.507Z,4.23
2018-05-25T19:47:02.591Z,3.80
2018-05-25T19:49:31.478Z,4.07
2018-05-25T19:51:59.549Z,3.70
2018-05-25T19:54:27.633Z,3.90
2018-05-25T19:56:56.783Z,4.30
2018-05-25T19:59:24.941Z,4.57
2018-05-25T20:01:53.013Z,4.20
2018-05-25T20:04:21.931Z,4.97
2018-05-25T20:06:50.759Z,4.50
2018-05-25T20:09:18.830Z,4.17
2018-05-25T20:11:47.451Z,4.23
2018-05-25T20:14:15.510Z,4.80
2018-05-25T20:16:43.585Z,4.03
2018-05-25T20:19:12.075Z,4.13
2018-05-25T20:21:40.145Z,4.40
2018-05-25T20:24:08.260Z,3.93
2018-05-25T20:26:36.794Z,3.80
2018-05-25T20:29:04.856Z,4.60
2018-05-25T20:31:32.947Z,4.10
2018-05-25T20:34:01.988Z,4.10
2018-05-25T20:36:30.067Z,5.40
2018-05-25T20:38:58.910Z,4.63
2018-05-25T20:41:27.914Z,4.47
2018-05-25T20:43:56.023Z,4.60
2018-05-25T20:46:24.150Z,3.97
2018-05-25T20:48:52.840Z,4.60
2018-05-25T20:51:20.968Z,4.90
2018-05-25T20:53:49.052Z,5.10
2018-05-25T20:56:17.773Z,4.43
2018-05-25T20:58:45.854Z,5.83
2018-05-25T21:01:13.977Z,5.03
2018-05-25T21:03:43.134Z,5.17
2018-05-25T21:06:11.209Z,4.70
2018-05-25T21:08:39.307Z,4.90
2018-05-25T21:11:08.275Z,4.77
2018-05-25T21:13:36.337Z,4.53
2018-05-25T21:16:04.469Z,4.70
2018-05-25T21:18:34.331Z,5.30
2018-05-25T21:21:02.403Z,4.50
2018-05-25T21:23:30.477Z,5.10
2018-05-25T21:25:58.725Z,4.80
2018-05-25T21:28:27.563Z,4.90
2018-05-25T21:30:55.649Z,4.63
2018-05-25T21:33:24.590Z,5.13
2018-05-25T21:35:52.666Z,5.80
2018-05-25T21:38:20.763Z,5.70
2018-05-25T21:40:50.037Z,5.40
2018-05-25T21:45:53.248Z,5.27
2018-05-25T21:48:21.371Z,5.40
2018-05-25T21:50:50.213Z,4.90
2018-05-25T21:53:18.789Z,5.33
2018-05-25T21:55:46.851Z,5.83
2018-05-25T21:58:14.987Z,6.10
2018-05-25T22:00:44.754Z,5.70
2018-05-25T22:03:12.819Z,6.27
2018-05-25T22:05:40.965Z,5.87
2018-05-25T22:08:09.539Z,5.90
2018-05-25T22:10:37.601Z,6.20
2018-05-25T22:13:05.727Z,6.20
2018-05-25T22:15:34.725Z,5.63
2018-05-25T22:18:02.835Z,6.13
2018-05-25T22:20:31.679Z,5.43
2018-05-25T22:23:00.103Z,6.63
2018-05-25T22:25:29.715Z,5.63
2018-05-25T22:27:57.804Z,5.80
2018-05-25T22:30:26.817Z,6.10
2018-05-25T22:32:54.907Z,6.80
2018-05-25T22:35:22.989Z,6.40
2018-05-25T22:37:51.651Z,6.07
2018-05-25T22:40:19.717Z,5.80
2018-05-25T22:43:00.079Z,6.00
2018-05-25T22:45:39.948Z,6.13
2018-05-25T22:48:20.184Z,5.87
2018-05-25T22:50:59.893Z,5.73
2018-05-25T22:53:33.220Z,6.20
2018-05-25T22:56:02.198Z,6.00
2018-05-25T22:58:30.349Z,6.50
2018-05-25T23:00:59.581Z,6.43
2018-05-25T23:03:27.856Z,5.93
2018-05-25T23:05:55.951Z,6.60
2018-05-25T23:08:24.902Z,6.00
2018-05-25T23:10:53.874Z,6.20
2018-05-25T23:13:22.737Z,5.90
2018-05-25T23:15:51.267Z,5.90
2018-05-25T23:18:20.338Z,5.93
2018-05-25T23:20:48.412Z,6.27
2018-05-25T23:23:16.606Z,6.30
2018-05-25T23:25:45.072Z,6.03
2018-05-25T23:28:14.356Z,5.50
2018-05-25T23:30:42.624Z,6.47
2018-05-25T23:33:11.301Z,6.50
2018-05-25T23:35:39.430Z,6.20
2018-05-25T23:38:07.717Z,6.70
2018-05-25T23:40:35.785Z,6.70
2018-05-25T23:43:04.308Z,6.70
2018-05-25T23:45:32.862Z,6.60
2018-05-25T23:48:00.921Z,6.43
2018-05-25T23:50:29.447Z,6.60
2018-05-25T23:52:57.642Z,6.50
2018-05-25T23:55:25.723Z,7.03
2018-05-25T23:57:53.971Z,6.63
